Flight Track Log - Related Links

Times and Time Zones

All times are in EDT time to prevent confusion due to time zone crossing. See the FLG3314 flight status page for this flight to view local times or setup timezone preferences in your user account.

Time Position Orientation Groundspeed Altitude Reporting Facility
EDT Latitude Longitude Course Direction KTS MPH feet Rate Location/Type
Mon 04:05:55 PM 39.0333 -84.6667 180° South 158 182 1,400  Level Cincinnati TRACON
Mon 04:06:37 PM 39.0167 -84.6667 180° South 170 196 3,200 2,313 Climbing Cincinnati TRACON
Mon 04:07:31 PM 38.9833 -84.6000 123° Southeast 243 280 5,100 2,250 Climbing Cincinnati TRACON
Mon 04:08:37 PM 38.9667 -84.4833 100° East 299 344 7,700 2,514 Climbing Cincinnati TRACON
Mon 04:09:59 PM 38.9394 -84.3464 104° East 321 369 11,300 2,292 Climbing Indianapolis Center
Mon 04:11:01 PM 38.9131 -84.2233 105° East 357 411 13,200 2,032 Climbing Indianapolis Center
Mon 04:12:03 PM 38.8850 -84.0886 105° East 386 444 15,500 2,129 Climbing Indianapolis Center
Mon 04:13:05 PM 38.8531 -83.9483 106° East 406 467 17,600 2,274 Climbing Indianapolis Center
Mon 04:14:07 PM 38.8142 -83.7750 106° East 421 484 20,200 2,177 Climbing Indianapolis Center
Mon 04:15:09 PM 38.7806 -83.6228 106° East 442 509 22,100 1,355 Climbing Indianapolis Center
Mon 04:16:11 PM 38.7458 -83.4672 106° East 454 522 23,000 432 Climbing Indianapolis Center
Mon 04:17:14 PM 38.7083 -83.3064 107° East 469 540 23,000  Level Indianapolis Center
Mon 04:18:16 PM 38.6700 -83.1297 105° East 479 551 23,000  Level Indianapolis Center
Mon 04:19:18 PM 38.6297 -82.9578 107° East 482 555 23,000  Level Indianapolis Center
Mon 04:20:20 PM 38.5922 -82.7936 106° East 481 554 23,000  Level Indianapolis Center
Mon 04:21:22 PM 38.5481 -82.6050 107° East 474 545 23,000  Level Indianapolis Center
Mon 04:22:24 PM 38.5108 -82.4478 107° East 474 545 23,000  Level Indianapolis Center
Mon 04:23:26 PM 38.4728 -82.2867 107° East 477 549 23,000  Level Indianapolis Center
Mon 04:24:28 PM 38.4342 -82.1250 107° East 478 550 23,000  Level Indianapolis Center
Mon 04:25:30 PM 38.3953 -81.9642 107° East 477 549 23,000  Level Indianapolis Center
Mon 04:26:32 PM 38.3583 -81.8056 106° East 472 543 23,000  Level Indianapolis Center
Mon 04:27:35 PM 38.3444 -81.6033 95° East 488 562 23,000  Level Indianapolis Center
Mon 04:28:37 PM 38.3389 -81.4336 92° East 486 559 23,000  Level Indianapolis Center
Mon 04:29:39 PM 38.3328 -81.2631 93° East 487 560 23,000  Level Indianapolis Center
Mon 04:30:41 PM 38.3258 -81.0925 93° East 488 562 23,000  Level Indianapolis Center
Mon 04:31:43 PM 38.3186 -80.8864 92° East 486 559 23,000  Level Indianapolis Center
Mon 04:32:45 PM 38.3122 -80.7164 93° East 488 562 23,000  Level Indianapolis Center
Mon 04:33:47 PM 38.3064 -80.5456 92° East 485 558 23,000  Level Indianapolis Center
Mon 04:34:49 PM 38.2983 -80.3783 93° East 477 549 23,000  Level Indianapolis Center
Mon 04:35:51 PM 38.2917 -80.2083 93° East 480 552 23,000  Level Indianapolis Center
Mon 04:36:53 PM 38.2836 -80.0261 93° East 478 550 23,000  Level Indianapolis Center
Mon 04:37:55 PM 38.2761 -79.8617 93° East 478 550 23,000  Level Indianapolis Center
Mon 04:38:57 PM 38.2936 -79.6653 83° East 488 562 23,000  Level Indianapolis Center
Mon 04:39:59 PM 38.3453 -79.5122 67° East 483 556 23,000  Level Indianapolis Center
Mon 04:41:01 PM 38.3981 -79.3600 66° East 482 555 23,000  Level Indianapolis Center
Mon 04:42:00 PM 38.4400 -79.2075 71° East 478 550 23,000  Level Washington Center
Mon 04:43:01 PM 38.4700 -79.0392 77° East 478 550 23,000 -443 Level Washington Center
Mon 04:44:02 PM 38.5003 -78.8522 78° East 478 550 22,100 -1,180 Descending Washington Center
Mon 04:45:03 PM 38.5253 -78.6886 79° East 483 556 20,600 -1,513 Descending Washington Center
Mon 04:46:01 PM 38.5503 -78.5306 79° East 478 550 19,100 -1,311 Descending Washington Center
Mon 04:47:02 PM 38.5747 -78.3747 79° East 459 528 18,000 -992 Descending Washington Center
Mon 04:48:02 PM 38.6053 -78.2272 75° East 438 504 17,100 -1,000 Descending Washington Center
Mon 04:49:02 PM 38.6456 -78.0931 69° East 413 475 16,000 -1,289 Descending Washington Center
Mon 04:50:03 PM 38.6856 -77.9694 67° East 395 455 14,500 -1,475 Descending Washington Center
Mon 04:51:00 PM 38.7256 -77.8483 67° East 376 433 13,100 -1,475 Descending Washington Center
Mon 04:52:01 PM 38.7769 -77.7644 52° Northeast 339 390 11,600 -1,041 Descending Washington Center
Mon 04:53:01 PM 38.8347 -77.6811 48° Northeast 317 365 11,000 -652 Descending Washington Center
Mon 04:53:33 PM 38.8667 -77.6167 58° Northeast 317 365 10,600 -1,761 Descending Potomac TRACON
Mon 04:54:33 PM 38.9333 -77.5333 44° Northeast 306 352 8,300 -1,667 Descending Potomac TRACON
Mon 04:55:39 PM 38.9667 -77.4333 67° East 290 334 7,100 -619 Descending Potomac TRACON
Mon 04:56:39 PM 39.0167 -77.3500 52° Northeast 285 328 7,000 -200 Descending Potomac TRACON
Mon 04:57:39 PM 39.0833 -77.3000 30° Northeast 286 329 6,700 -1,000 Descending Potomac TRACON
Mon 04:58:33 PM 39.1000 -77.2333 72° East 284 327 5,100 -1,842 Descending Potomac TRACON
Mon 04:59:33 PM 39.0333 -77.1833 150° Southeast 237 273 3,200 -1,190 Descending Potomac TRACON
Mon 05:00:34 PM 38.9833 -77.1500 153° Southeast 203 234 2,700 -545 Descending Potomac TRACON
Mon 05:01:34 PM 38.9333 -77.1167 153° Southeast 175 201 2,100 -700 Descending Potomac TRACON
Mon 05:02:34 PM 38.9000 -77.0833 142° Southeast 164 189 1,300 -750 Descending Potomac TRACON
Mon 05:03:34 PM 38.8833 -77.0500 123° Southeast 135 155 600 -700 Descending Potomac TRACON
Mon 05:05:00 PM 38.8519 -77.0377 180° South  Level Estimated
Mon 05:12:00 PM 38.8500 -77.0333 North  Level FlightAware Approximate
Mon 05:13:00 PM 38.8519 -77.0377 North  Level Estimated
Mon 05:14:00 PM 38.8500 -77.0333 North  Level FlightAware Approximate

Login

Don't have an account? Register now (free) for customized features, flight alerts, and more!